Time;durP1;ratioP1;P1;durP2;ratioP2;P2;SDS_P1;SDS_P2;PMS_P1;PMS_P2;Temp;Humidity;BMP_temperature;BMP_pressure;BME280_temperature;BME280_humidity;BME280_pressure;Samples;Min_cycle;Max_cycle;Signal;HPM_P1;HPM_P2
2021/05/05 00:01:58;;;;;;;4.97;0.60;;;6.70;99.90;;;;;;5036862;28;20047;-83
2021/05/05 00:04:27;;;;;;;8.95;1.00;;;6.70;99.90;;;;;;5103550;28;20865;-83
2021/05/05 00:06:58;;;;;;;7.20;1.00;;;6.80;99.90;;;;;;5052290;28;20043;-83
2021/05/05 00:09:25;;;;;;;8.90;0.80;;;6.80;99.90;;;;;;5067701;28;20050;-83
2021/05/05 00:11:52;;;;;;;6.35;0.70;;;6.90;99.90;;;;;;5069341;28;20058;-83
2021/05/05 00:14:20;;;;;;;5.07;0.87;;;6.90;99.90;;;;;;5087980;28;20387;-84
2021/05/05 00:16:47;;;;;;;6.67;0.80;;;7.00;99.90;;;;;;5083954;28;20036;-84
2021/05/05 00:19:14;;;;;;;7.53;1.15;;;7.00;99.90;;;;;;5102597;28;20585;-84
2021/05/05 00:21:41;;;;;;;11.53;0.90;;;7.00;99.90;;;;;;5085680;28;20040;-84
2021/05/05 00:24:09;;;;;;;10.85;1.00;;;7.10;99.90;;;;;;5070591;28;20036;-83
2021/05/05 00:26:36;;;;;;;4.07;0.60;;;7.00;99.90;;;;;;5069488;28;20036;-83
2021/05/05 00:29:05;;;;;;;7.10;0.68;;;7.10;99.90;;;;;;5069892;28;20047;-83
2021/05/05 00:31:33;;;;;;;7.27;0.80;;;7.00;99.90;;;;;;5095155;28;20038;-83
2021/05/05 00:34:06;;;;;;;6.28;0.63;;;7.00;99.90;;;;;;5052887;28;20036;-82
2021/05/05 00:36:33;;;;;;;6.13;0.80;;;7.00;99.90;;;;;;5101933;28;20050;-82
2021/05/05 00:39:00;;;;;;;7.67;0.80;;;6.90;99.90;;;;;;5069712;28;20047;-82
2021/05/05 00:41:27;;;;;;;9.37;0.80;;;6.90;99.90;;;;;;5067346;28;20054;-82
2021/05/05 00:43:53;;;;;;;4.80;0.70;;;6.90;99.90;;;;;;5085656;28;20056;-82
2021/05/05 00:46:20;;;;;;;6.27;0.90;;;6.90;99.90;;;;;;5091767;28;20050;-83
2021/05/05 00:48:46;;;;;;;11.30;1.23;;;6.90;99.90;;;;;;5075108;28;20043;-82
2021/05/05 00:51:13;;;;;;;8.63;0.87;;;6.90;99.90;;;;;;5088531;28;20043;-82
2021/05/05 00:53:40;;;;;;;8.43;1.00;;;6.90;99.90;;;;;;5074331;28;20039;-82
2021/05/05 00:56:07;;;;;;;8.05;0.88;;;6.90;99.90;;;;;;5090419;28;20047;-82
2021/05/05 00:58:35;;;;;;;10.83;1.13;;;6.80;99.90;;;;;;5038117;28;20063;-82
2021/05/05 01:01:04;;;;;;;8.17;1.20;;;6.90;99.90;;;;;;5074720;28;20039;-82
2021/05/05 01:03:30;;;;;;;9.67;1.10;;;6.80;99.90;;;;;;5107295;28;20071;-83
2021/05/05 01:05:58;;;;;;;14.63;1.00;;;6.80;99.90;;;;;;5075199;28;20113;-83
2021/05/05 01:08:25;;;;;;;9.80;1.00;;;6.80;99.90;;;;;;5105040;28;20039;-82
2021/05/05 01:10:52;;;;;;;7.30;0.90;;;6.80;99.90;;;;;;5071405;28;20044;-81
2021/05/05 01:13:20;;;;;;;11.50;1.50;;;6.90;99.90;;;;;;5074801;28;20040;-82
2021/05/05 01:15:48;;;;;;;8.53;1.57;;;6.90;99.90;;;;;;5091763;28;20781;-82
2021/05/05 01:18:15;;;;;;;11.52;2.15;;;6.90;99.90;;;;;;5106504;28;20047;-83
2021/05/05 01:20:41;;;;;;;7.33;1.40;;;6.90;99.90;;;;;;5074385;28;20038;-82
2021/05/05 01:23:08;;;;;;;9.13;1.97;;;6.90;99.90;;;;;;5073872;28;20043;-82
2021/05/05 01:25:35;;;;;;;10.33;1.60;;;6.90;99.80;;;;;;5089445;28;20114;-82
2021/05/05 01:28:03;;;;;;;10.47;1.63;;;6.90;99.60;;;;;;5105819;28;20036;-82
2021/05/05 01:30:30;;;;;;;9.37;1.50;;;7.00;99.70;;;;;;5089767;28;20040;-83
2021/05/05 01:33:09;;;;;;;8.43;1.33;;;7.00;99.70;;;;;;5076743;28;20482;-83
2021/05/05 01:35:36;;;;;;;5.83;1.00;;;7.00;99.70;;;;;;5090015;28;20039;-82
2021/05/05 01:38:03;;;;;;;6.40;0.73;;;6.90;99.70;;;;;;5071983;28;20040;-82
2021/05/05 01:40:32;;;;;;;3.77;0.50;;;6.80;99.40;;;;;;5074219;28;20852;-82
2021/05/05 01:43:01;;;;;;;3.60;0.43;;;6.50;99.40;;;;;;5091128;28;20039;-82
2021/05/05 01:45:27;;;;;;;4.00;0.23;;;6.30;99.80;;;;;;5108564;28;20044;-82
2021/05/05 01:48:00;;;;;;;3.80;0.47;;;6.10;99.90;;;;;;5105431;28;20494;-82
2021/05/05 01:50:27;;;;;;;4.97;1.33;;;6.00;99.90;;;;;;5090910;28;20627;-82
2021/05/05 01:52:54;;;;;;;7.23;0.77;;;5.90;99.90;;;;;;5107716;28;20031;-82
2021/05/05 01:55:21;;;;;;;4.87;0.50;;;6.00;99.90;;;;;;5078879;28;20039;-82
2021/05/05 01:57:49;;;;;;;4.10;1.03;;;5.90;99.90;;;;;;5070831;28;20436;-82
2021/05/05 02:00:28;;;;;;;6.27;0.60;;;6.00;99.90;;;;;;5072620;28;21351;-82
2021/05/05 02:03:06;;;;;;;7.17;0.70;;;6.00;99.90;;;;;;5089916;28;20039;-82
2021/05/05 02:05:38;;;;;;;6.85;1.35;;;6.00;99.90;;;;;;5073737;28;20047;-83
2021/05/05 02:08:14;;;;;;;7.00;0.97;;;5.90;99.90;;;;;;5056571;28;20050;-82
2021/05/05 02:10:42;;;;;;;6.77;0.90;;;5.90;99.90;;;;;;5073776;28;20054;-82
2021/05/05 02:13:09;;;;;;;9.20;0.70;;;5.90;99.90;;;;;;5038711;28;20043;-83
2021/05/05 02:15:36;;;;;;;7.13;0.67;;;6.00;99.90;;;;;;5072295;28;20071;-82
2021/05/05 02:18:06;;;;;;;7.27;1.20;;;6.00;99.90;;;;;;5070654;28;20059;-83
2021/05/05 02:20:33;;;;;;;6.30;1.07;;;5.90;99.90;;;;;;5073661;28;20062;-82
2021/05/05 02:23:01;;;;;;;13.53;1.33;;;5.90;99.90;;;;;;5090227;28;20027;-83
2021/05/05 02:25:28;;;;;;;11.77;1.00;;;5.90;99.90;;;;;;5108018;28;20032;-83
2021/05/05 02:27:58;;;;;;;15.57;1.80;;;5.90;99.90;;;;;;5068962;28;20036;-84
2021/05/05 02:30:32;;;;;;;12.60;1.50;;;5.90;99.90;;;;;;5058851;28;20040;-83
2021/05/05 02:33:03;;;;;;;8.97;0.80;;;5.80;99.90;;;;;;5075291;28;20052;-83
2021/05/05 02:35:30;;;;;;;10.10;1.00;;;5.80;99.90;;;;;;5072081;28;20052;-83
2021/05/05 02:37:59;;;;;;;10.73;1.10;;;5.80;99.90;;;;;;5107066;28;20054;-83
2021/05/05 02:40:27;;;;;;;9.47;1.20;;;5.80;99.90;;;;;;5072521;28;20070;-83
2021/05/05 02:42:57;;;;;;;12.07;1.30;;;5.80;99.90;;;;;;5086487;28;20050;-83
2021/05/05 02:45:24;;;;;;;7.83;1.40;;;5.80;99.90;;;;;;5090991;28;20052;-83
2021/05/05 02:47:51;;;;;;;10.17;0.87;;;5.80;99.90;;;;;;5064779;28;20634;-83
2021/05/05 02:50:18;;;;;;;8.63;1.00;;;5.90;99.90;;;;;;5069094;28;20051;-83
2021/05/05 02:52:45;;;;;;;8.20;0.83;;;5.90;99.90;;;;;;5088195;28;20048;-84
2021/05/05 02:55:14;;;;;;;9.30;0.80;;;5.90;99.90;;;;;;5087917;28;20561;-83
2021/05/05 02:57:45;;;;;;;9.87;1.10;;;5.90;99.90;;;;;;5072921;28;20043;-83
2021/05/05 03:00:12;;;;;;;13.43;1.47;;;5.90;99.90;;;;;;5069166;28;20056;-84
2021/05/05 03:02:38;;;;;;;11.20;1.10;;;6.00;99.90;;;;;;5088636;28;20478;-82
2021/05/05 03:05:07;;;;;;;10.63;1.00;;;6.00;99.90;;;;;;5104778;28;20387;-82
2021/05/05 03:07:33;;;;;;;13.03;1.83;;;6.00;99.90;;;;;;5072154;28;20035;-83
2021/05/05 03:10:00;;;;;;;11.03;1.47;;;6.00;99.90;;;;;;5070141;28;20055;-83
2021/05/05 03:12:27;;;;;;;15.10;1.97;;;5.90;99.90;;;;;;5089744;28;20402;-83
2021/05/05 03:14:54;;;;;;;16.50;2.03;;;5.90;99.90;;;;;;5071219;28;20047;-83
2021/05/05 03:17:21;;;;;;;9.87;1.53;;;5.90;99.90;;;;;;5089258;28;20062;-83
2021/05/05 03:19:47;;;;;;;15.67;2.20;;;5.90;99.90;;;;;;5087152;28;20040;-83
2021/05/05 03:22:14;;;;;;;13.43;2.40;;;6.00;99.90;;;;;;5056152;28;20062;-83
2021/05/05 03:24:40;;;;;;;16.17;2.27;;;6.00;99.90;;;;;;5055135;28;20044;-84
2021/05/05 03:27:07;;;;;;;13.87;1.80;;;6.00;99.90;;;;;;5072713;28;20516;-83
2021/05/05 03:29:33;;;;;;;15.97;1.97;;;6.00;99.90;;;;;;5086531;28;20043;-83
2021/05/05 03:32:00;;;;;;;12.13;1.53;;;6.00;99.90;;;;;;5089529;28;20054;-83
2021/05/05 03:34:26;;;;;;;9.50;1.63;;;6.00;99.90;;;;;;5105239;28;20043;-83
2021/05/05 03:36:53;;;;;;;12.37;2.00;;;6.00;99.90;;;;;;5089409;28;20059;-83
2021/05/05 03:39:19;;;;;;;8.37;1.93;;;6.00;99.90;;;;;;5070894;28;20031;-83
2021/05/05 03:41:46;;;;;;;8.47;1.63;;;6.10;99.90;;;;;;5087229;28;20048;-83
2021/05/05 03:44:12;;;;;;;8.93;2.80;;;6.00;99.90;;;;;;5054746;28;20031;-82
2021/05/05 03:46:39;;;;;;;15.30;4.30;;;6.10;99.90;;;;;;5088094;28;20541;-83
2021/05/05 03:49:07;;;;;;;16.90;4.60;;;6.10;99.90;;;;;;5085448;28;20054;-83
2021/05/05 03:51:33;;;;;;;13.40;4.40;;;6.00;99.90;;;;;;5064513;28;20040;-83
2021/05/05 03:54:00;;;;;;;16.30;3.67;;;6.00;99.90;;;;;;5073036;28;20395;-83
2021/05/05 03:56:26;;;;;;;12.57;4.47;;;6.10;99.90;;;;;;5088219;28;20056;-83
2021/05/05 03:58:54;;;;;;;15.07;4.50;;;6.10;99.90;;;;;;5038016;28;20143;-83
2021/05/05 04:01:20;;;;;;;12.97;3.57;;;6.10;99.90;;;;;;5086811;28;20036;-83
2021/05/05 04:03:47;;;;;;;14.83;4.43;;;6.10;99.90;;;;;;5088129;28;20047;-83
2021/05/05 04:06:14;;;;;;;12.80;3.70;;;6.00;99.90;;;;;;5088708;28;20047;-83
2021/05/05 04:08:40;;;;;;;13.40;4.13;;;6.00;99.90;;;;;;5069321;28;20052;-83
2021/05/05 04:11:07;;;;;;;13.73;3.93;;;5.90;99.90;;;;;;5071567;28;20055;-83
2021/05/05 04:13:33;;;;;;;13.40;3.50;;;5.90;99.90;;;;;;5087158;28;20062;-82
2021/05/05 04:16:00;;;;;;;11.33;3.07;;;5.90;99.90;;;;;;5055711;28;20039;-83
2021/05/05 04:18:28;;;;;;;13.93;4.00;;;5.80;99.90;;;;;;5100702;28;20051;-83
2021/05/05 04:20:57;;;;;;;17.17;4.13;;;5.80;99.90;;;;;;5087312;28;20059;-83
2021/05/05 04:23:23;;;;;;;18.10;4.17;;;5.90;99.90;;;;;;5104339;28;20035;-82
2021/05/05 04:25:50;;;;;;;19.93;3.67;;;5.80;99.90;;;;;;5088804;28;20048;-83
2021/05/05 04:28:16;;;;;;;11.70;3.63;;;5.80;99.90;;;;;;5087442;28;20035;-82
2021/05/05 04:30:43;;;;;;;18.20;3.10;;;5.70;99.90;;;;;;5103422;28;20634;-83
2021/05/05 04:33:10;;;;;;;17.57;2.63;;;5.70;99.90;;;;;;5103518;28;20521;-81
2021/05/05 04:35:37;;;;;;;12.97;2.77;;;5.70;99.90;;;;;;5071644;28;20047;-83
2021/05/05 04:38:03;;;;;;;13.23;2.80;;;5.60;99.90;;;;;;5102063;28;20032;-84
2021/05/05 04:40:36;;;;;;;15.50;2.73;;;5.60;99.90;;;;;;5069182;28;20032;-79
2021/05/05 04:43:03;;;;;;;14.43;2.63;;;5.60;99.90;;;;;;5100745;28;20035;-82
2021/05/05 04:45:30;;;;;;;11.63;2.80;;;5.60;99.90;;;;;;5063781;28;20406;-82
2021/05/05 04:47:59;;;;;;;17.70;3.57;;;5.60;99.90;;;;;;5067555;28;20035;-82
2021/05/05 04:50:27;;;;;;;16.87;4.17;;;5.70;99.90;;;;;;5082657;28;20394;-82
2021/05/05 04:52:53;;;;;;;15.73;2.63;;;5.70;99.90;;;;;;5103361;28;20044;-82
2021/05/05 04:55:20;;;;;;;16.50;3.23;;;5.70;99.90;;;;;;5052454;28;20043;-82
2021/05/05 04:57:47;;;;;;;8.97;2.43;;;5.70;99.90;;;;;;5067047;28;20043;-82
2021/05/05 05:00:14;;;;;;;17.00;3.10;;;5.70;99.90;;;;;;5073302;28;20544;-82
2021/05/05 05:02:41;;;;;;;13.45;2.75;;;5.80;99.90;;;;;;5101618;28;20048;-82
2021/05/05 05:05:08;;;;;;;15.47;4.40;;;5.80;99.90;;;;;;5068083;28;20040;-82
2021/05/05 05:07:35;;;;;;;16.00;4.07;;;5.90;99.90;;;;;;5085740;28;20390;-82
2021/05/05 05:10:04;;;;;;;20.70;4.87;;;5.90;99.90;;;;;;5049392;28;20040;-82
2021/05/05 05:12:31;;;;;;;16.37;4.43;;;5.90;99.90;;;;;;5102804;28;20039;-82
2021/05/05 05:14:58;;;;;;;11.60;4.33;;;5.90;99.90;;;;;;5096063;28;20414;-83
2021/05/05 05:17:25;;;;;;;13.67;4.57;;;6.00;99.90;;;;;;5083061;28;20118;-82
2021/05/05 05:19:51;;;;;;;16.43;4.60;;;6.00;99.90;;;;;;5067383;28;20036;-82
2021/05/05 05:22:18;;;;;;;12.77;4.03;;;6.00;99.90;;;;;;5100520;28;20043;-82
2021/05/05 05:24:45;;;;;;;11.63;4.50;;;6.00;99.90;;;;;;5083592;28;20050;-82
2021/05/05 05:27:11;;;;;;;15.38;4.40;;;6.00;99.90;;;;;;5068721;28;20043;-82
2021/05/05 05:29:38;;;;;;;11.30;3.90;;;6.10;99.90;;;;;;5065100;28;20063;-82
2021/05/05 05:32:04;;;;;;;14.20;4.00;;;6.10;99.90;;;;;;5087814;28;20036;-82
2021/05/05 05:34:31;;;;;;;9.57;3.77;;;6.00;99.90;;;;;;5069760;28;20044;-82
2021/05/05 05:36:57;;;;;;;13.93;4.40;;;6.00;99.90;;;;;;5053358;28;20032;-82
2021/05/05 05:39:24;;;;;;;9.50;3.90;;;6.10;99.90;;;;;;5053809;28;20102;-82
2021/05/05 05:41:50;;;;;;;12.50;4.23;;;6.10;99.90;;;;;;5056337;28;20039;-82
2021/05/05 05:44:17;;;;;;;9.93;3.73;;;6.10;99.90;;;;;;5069843;28;20039;-82
2021/05/05 05:46:44;;;;;;;10.77;3.50;;;6.10;99.90;;;;;;5071846;28;20039;-82
2021/05/05 05:49:11;;;;;;;13.63;4.00;;;6.10;99.90;;;;;;5066434;28;20048;-82
2021/05/05 05:51:38;;;;;;;12.37;3.47;;;6.10;99.90;;;;;;5087101;28;20047;-82
2021/05/05 05:54:05;;;;;;;8.63;3.30;;;6.20;99.90;;;;;;5089334;28;20039;-82
2021/05/05 05:56:32;;;;;;;13.27;3.30;;;6.30;99.90;;;;;;5072475;28;20513;-82
2021/05/05 05:58:59;;;;;;;14.63;3.63;;;6.40;99.90;;;;;;5086215;28;20040;-83
2021/05/05 06:01:25;;;;;;;8.33;2.50;;;6.40;99.90;;;;;;5106268;28;20048;-82
2021/05/05 06:03:52;;;;;;;11.23;2.25;;;6.40;99.90;;;;;;5104826;28;20042;-82
2021/05/05 06:06:19;;;;;;;13.82;2.85;;;6.40;99.90;;;;;;5088540;28;20052;-82
2021/05/05 06:08:45;;;;;;;9.03;2.27;;;6.50;99.90;;;;;;5106223;28;20512;-82
2021/05/05 06:11:12;;;;;;;9.80;1.95;;;6.50;99.90;;;;;;5055172;28;20062;-81
2021/05/05 06:13:38;;;;;;;12.48;2.22;;;6.60;99.90;;;;;;5106371;28;20047;-81
2021/05/05 06:16:05;;;;;;;8.53;1.93;;;6.70;99.90;;;;;;5093267;28;20066;-80
2021/05/05 06:18:32;;;;;;;10.43;2.03;;;6.80;99.90;;;;;;5072088;28;20038;-82
2021/05/05 06:21:00;;;;;;;8.73;1.93;;;6.90;99.90;;;;;;5073311;28;20040;-82
2021/05/05 06:23:26;;;;;;;8.77;1.93;;;6.90;99.90;;;;;;5072981;28;20039;-81
2021/05/05 06:25:53;;;;;;;9.73;2.07;;;6.90;99.90;;;;;;5058854;28;20039;-82
2021/05/05 06:28:20;;;;;;;8.23;1.80;;;6.80;99.90;;;;;;5088020;28;20051;-83
2021/05/05 06:30:46;;;;;;;13.35;2.30;;;6.80;99.90;;;;;;5088623;28;20384;-82
2021/05/05 06:33:13;;;;;;;10.33;2.00;;;6.70;99.90;;;;;;5089593;28;20039;-82
2021/05/05 06:35:40;;;;;;;7.47;1.40;;;6.90;99.90;;;;;;5087155;28;20043;-82
2021/05/05 06:38:06;;;;;;;7.90;1.33;;;7.10;99.90;;;;;;5108095;28;20043;-82
2021/05/05 06:40:33;;;;;;;9.82;1.60;;;7.40;99.90;;;;;;5107318;28;20035;-82
2021/05/05 06:42:59;;;;;;;6.53;0.98;;;7.70;99.90;;;;;;5070145;28;20032;-81
2021/05/05 06:45:26;;;;;;;8.05;1.35;;;7.90;99.90;;;;;;5106966;28;20347;-81
2021/05/05 06:47:52;;;;;;;10.07;1.42;;;8.10;99.90;;;;;;5106086;28;20035;-82
2021/05/05 06:50:19;;;;;;;8.15;1.80;;;8.30;99.90;;;;;;5083242;28;20388;-79
2021/05/05 06:52:46;;;;;;;7.82;1.45;;;8.60;99.90;;;;;;5085911;28;20043;-82
2021/05/05 06:55:13;;;;;;;12.43;1.35;;;8.80;99.90;;;;;;5100643;28;20482;-78
2021/05/05 06:57:40;;;;;;;6.80;1.45;;;8.90;99.40;;;;;;5093331;28;20074;-79
2021/05/05 07:00:08;;;;;;;9.13;1.40;;;8.80;99.00;;;;;;5079337;28;20055;-78
2021/05/05 07:02:35;;;;;;;6.95;1.23;;;8.70;98.60;;;;;;5084571;28;20043;-79
2021/05/05 07:05:02;;;;;;;9.63;1.70;;;8.70;98.70;;;;;;5103787;28;20394;-79
2021/05/05 07:07:29;;;;;;;11.13;1.98;;;8.60;98.70;;;;;;5084414;28;20031;-79
2021/05/05 07:09:56;;;;;;;13.70;1.33;;;8.60;98.20;;;;;;5081918;28;20647;-78
2021/05/05 07:12:23;;;;;;;6.30;0.93;;;8.60;98.40;;;;;;5086610;28;20047;-77
2021/05/05 07:14:50;;;;;;;8.07;1.08;;;8.70;98.10;;;;;;5101633;28;20039;-76
2021/05/05 07:17:16;;;;;;;9.52;0.98;;;8.60;97.30;;;;;;5083632;28;20056;-83
2021/05/05 07:19:43;;;;;;;8.07;1.30;;;8.60;97.50;;;;;;5049617;28;20524;-84
2021/05/05 07:22:10;;;;;;;11.48;1.05;;;8.70;97.60;;;;;;5073248;28;20039;-81
2021/05/05 07:24:38;;;;;;;8.27;1.50;;;8.80;97.40;;;;;;5086159;28;20048;-82
2021/05/05 07:27:05;;;;;;;5.00;0.95;;;8.80;96.70;;;;;;5099365;28;20039;-82
2021/05/05 07:29:33;;;;;;;6.75;1.00;;;8.80;96.60;;;;;;5081519;28;20391;-83
2021/05/05 07:31:59;;;;;;;7.07;0.80;;;8.70;96.50;;;;;;5102744;28;20031;-81
2021/05/05 07:34:27;;;;;;;6.80;0.98;;;8.80;96.80;;;;;;5087020;28;20406;-81
2021/05/05 07:36:58;;;;;;;7.70;0.73;;;8.80;97.00;;;;;;5102526;28;20028;-84
2021/05/05 07:40:24;;;;;;;6.10;0.90;;;9.00;96.70;;;;;;5064011;28;20036;-81
2021/05/05 07:42:37;;;;;;;4.95;0.60;;;9.20;96.30;;;;;;5092763;28;20055;-80
2021/05/05 07:45:16;;;;;;;7.63;0.85;;;9.30;95.60;;;;;;5083466;28;20028;-81
2021/05/05 07:50:17;;;;;;;6.38;0.70;;;9.50;95.20;;;;;;5096158;28;20062;-81
2021/05/05 07:52:44;;;;;;;7.05;0.98;;;9.50;95.10;;;;;;5100546;28;20043;-81
2021/05/05 07:55:11;;;;;;;4.63;0.60;;;9.60;95.10;;;;;;5100951;28;20058;-81
2021/05/05 07:57:42;;;;;;;9.65;0.85;;;9.70;94.60;;;;;;5099400;28;20052;-80
2021/05/05 08:00:13;;;;;;;4.15;0.70;;;9.90;94.30;;;;;;5082699;28;20039;-81
2021/05/05 08:02:39;;;;;;;6.57;0.75;;;10.10;94.30;;;;;;5085016;28;20035;-81
2021/05/05 08:05:06;;;;;;;6.75;0.80;;;10.20;94.00;;;;;;5099084;28;20391;-82
2021/05/05 08:07:33;;;;;;;6.25;0.68;;;10.00;93.70;;;;;;5066665;28;20038;-82
2021/05/05 08:09:59;;;;;;;6.22;0.70;;;9.50;93.90;;;;;;5096349;28;20042;-81
2021/05/05 08:12:28;;;;;;;9.63;1.00;;;9.10;94.80;;;;;;5099597;28;20058;-81
2021/05/05 08:14:54;;;;;;;9.05;0.75;;;8.50;95.30;;;;;;5077132;28;20036;-82
2021/05/05 08:17:21;;;;;;;5.70;1.00;;;8.00;96.20;;;;;;5096900;28;20043;-81
2021/05/05 08:19:48;;;;;;;10.25;0.70;;;7.60;97.10;;;;;;5080078;28;20052;-82
2021/05/05 08:22:14;;;;;;;5.22;0.68;;;7.40;97.90;;;;;;5083175;28;20040;-82
2021/05/05 08:24:42;;;;;;;6.53;0.93;;;7.40;98.80;;;;;;5084225;28;20039;-82
2021/05/05 08:27:09;;;;;;;14.55;0.90;;;7.60;99.50;;;;;;5084135;28;20043;-82
2021/05/05 08:29:35;;;;;;;15.07;0.80;;;7.90;99.80;;;;;;5082810;28;20043;-82
2021/05/05 08:32:03;;;;;;;6.60;0.60;;;8.10;99.90;;;;;;5084377;28;20145;-83
2021/05/05 08:34:30;;;;;;;7.00;0.70;;;8.40;99.90;;;;;;5067087;28;20048;-82
2021/05/05 08:36:57;;;;;;;10.68;1.50;;;8.50;99.70;;;;;;5085185;28;20362;-80
2021/05/05 08:39:25;;;;;;;9.50;1.88;;;8.50;99.70;;;;;;5094912;28;20036;-80
2021/05/05 08:41:53;;;;;;;11.48;0.95;;;8.60;99.90;;;;;;5096171;28;20044;-82
2021/05/05 08:44:20;;;;;;;9.38;1.27;;;8.80;99.90;;;;;;5094574;28;20046;-81
2021/05/05 08:46:48;;;;;;;9.52;0.88;;;9.00;99.90;;;;;;5068907;28;20039;-81
2021/05/05 08:49:16;;;;;;;8.93;0.93;;;9.10;99.60;;;;;;5064828;28;20122;-81
2021/05/05 08:51:44;;;;;;;9.65;1.25;;;9.00;99.70;;;;;;5063420;28;20036;-81
2021/05/05 08:54:11;;;;;;;6.15;0.60;;;8.90;99.50;;;;;;5095825;28;20036;-82
2021/05/05 08:56:38;;;;;;;7.30;0.82;;;9.00;99.80;;;;;;5098460;28;20036;-81
2021/05/05 08:59:08;;;;;;;7.10;0.70;;;9.10;99.90;;;;;;5094166;28;20063;-81
2021/05/05 09:01:35;;;;;;;9.70;0.68;;;9.20;99.70;;;;;;5108410;27;20035;-82
2021/05/05 09:04:03;;;;;;;6.53;0.90;;;9.30;99.90;;;;;;5095001;28;20024;-83
2021/05/05 09:06:59;;;;;;;6.72;0.82;;;9.50;99.50;;;;;;5083742;28;20490;-81
2021/05/05 09:09:45;;;;;;;7.32;1.20;;;9.60;99.30;;;;;;5103043;28;20048;-81
2021/05/05 09:12:14;;;;;;;10.30;0.95;;;9.80;99.10;;;;;;5100038;28;20043;-83
2021/05/05 09:15:01;;;;;;;8.07;0.82;;;9.70;98.10;;;;;;5099352;28;20082;-86
2021/05/05 09:17:30;;;;;;;10.23;0.95;;;9.40;97.50;;;;;;5098102;28;20051;-82
2021/05/05 09:20:17;;;;;;;6.78;0.73;;;9.00;97.50;;;;;;5087528;28;20039;-83
2021/05/05 09:22:57;;;;;;;6.07;0.70;;;8.80;98.60;;;;;;5086096;27;20040;-83
2021/05/05 09:25:30;;;;;;;7.93;0.82;;;8.80;99.40;;;;;;5086176;28;20042;-82
2021/05/05 09:28:11;;;;;;;7.00;0.90;;;8.90;99.90;;;;;;5071688;28;20036;-87
2021/05/05 09:31:09;;;;;;;6.85;0.90;;;9.20;99.90;;;;;;5096765;28;20039;-81
2021/05/05 09:33:37;;;;;;;7.93;1.35;;;9.50;99.60;;;;;;5080781;28;20031;-87
2021/05/05 09:36:08;;;;;;;12.07;1.08;;;9.50;99.10;;;;;;5070514;28;20028;-83
2021/05/05 09:38:40;;;;;;;13.18;1.10;;;9.40;98.30;;;;;;5070166;28;20055;-79
2021/05/05 09:41:07;;;;;;;7.00;1.00;;;9.10;98.00;;;;;;5068505;28;20845;-79
2021/05/05 09:43:38;;;;;;;12.32;1.05;;;8.90;98.10;;;;;;5100251;28;20486;-80
2021/05/05 09:46:45;;;;;;;7.22;1.17;;;8.60;98.40;;;;;;5101102;28;20040;-80
2021/05/05 09:49:25;;;;;;;12.23;2.03;;;8.40;99.30;;;;;;5085522;28;20776;-83
2021/05/05 09:52:02;;;;;;;11.77;1.27;;;8.30;99.80;;;;;;5089356;28;20035;-80
2021/05/05 09:54:31;;;;;;;14.40;1.45;;;8.40;99.90;;;;;;5083615;28;20039;-84
2021/05/05 09:57:18;;;;;;;7.68;0.80;;;8.70;99.90;;;;;;5085696;28;20036;-82
2021/05/05 10:00:04;;;;;;;11.40;1.42;;;8.90;99.90;;;;;;5099297;28;20032;-84
2021/05/05 10:02:48;;;;;;;7.93;1.30;;;9.20;99.90;;;;;;5098899;28;20038;-85
2021/05/05 10:05:18;;;;;;;9.25;1.65;;;9.50;99.90;;;;;;5086371;28;20055;-80
2021/05/05 10:08:04;;;;;;;11.95;1.30;;;9.90;99.90;;;;;;5087829;28;20032;-80
2021/05/05 10:10:35;;;;;;;10.68;1.17;;;10.00;99.90;;;;;;5087125;28;20047;-80
2021/05/05 10:13:04;;;;;;;9.88;1.70;;;10.00;99.40;;;;;;5085102;28;20054;-78
2021/05/05 10:15:32;;;;;;;10.07;1.55;;;9.80;98.60;;;;;;5099607;28;20028;-78
2021/05/05 10:18:00;;;;;;;9.23;1.08;;;9.50;97.60;;;;;;5084203;28;20398;-77
2021/05/05 10:20:29;;;;;;;7.85;0.90;;;9.20;98.50;;;;;;5084971;28;20059;-79
2021/05/05 10:22:58;;;;;;;14.10;0.80;;;9.20;99.30;;;;;;5082338;28;21006;-78
2021/05/05 10:25:25;;;;;;;11.13;1.17;;;9.30;99.90;;;;;;5083590;28;20032;-80
2021/05/05 10:27:53;;;;;;;11.70;1.38;;;9.50;99.90;;;;;;5070016;28;20031;-80
2021/05/05 10:30:29;;;;;;;10.85;1.33;;;9.80;99.90;;;;;;5104064;28;20056;-79
2021/05/05 10:32:57;;;;;;;9.63;1.08;;;10.30;99.90;;;;;;5070286;28;20039;-80
2021/05/05 10:35:24;;;;;;;7.50;1.00;;;10.50;99.80;;;;;;5056630;28;20054;-80
2021/05/05 10:38:00;;;;;;;9.48;1.52;;;10.50;98.70;;;;;;5098264;28;20509;-80
2021/05/05 10:40:33;;;;;;;9.75;1.13;;;10.50;99.20;;;;;;5071972;28;20032;-80
2021/05/05 10:43:02;;;;;;;11.02;1.02;;;10.70;98.90;;;;;;5082712;28;20028;-79
2021/05/05 10:45:37;;;;;;;14.20;1.00;;;10.70;96.80;;;;;;5086389;28;20043;-79
2021/05/05 10:48:11;;;;;;;10.07;1.20;;;10.70;96.50;;;;;;5106424;28;20473;-80
2021/05/05 10:50:52;;;;;;;10.02;1.30;;;10.90;97.00;;;;;;5087141;28;20039;-79
2021/05/05 10:53:39;;;;;;;14.07;0.90;;;11.30;97.80;;;;;;5088690;28;20043;-78
2021/05/05 10:56:25;;;;;;;16.45;1.42;;;11.80;96.80;;;;;;5101364;28;20046;-78
2021/05/05 10:59:00;;;;;;;12.32;1.25;;;12.20;95.30;;;;;;5095977;28;20044;-76
2021/05/05 11:01:41;;;;;;;13.30;1.58;;;12.40;93.20;;;;;;5101792;28;20051;-77
2021/05/05 11:04:14;;;;;;;9.00;1.23;;;12.60;92.70;;;;;;5097160;28;20044;-78
2021/05/05 11:06:48;;;;;;;7.05;1.05;;;12.90;92.80;;;;;;5083921;28;20493;-76
2021/05/05 11:09:16;;;;;;;7.90;0.82;;;13.00;91.20;;;;;;5091842;28;20036;-75
2021/05/05 11:11:44;;;;;;;10.35;0.95;;;13.00;90.50;;;;;;5094014;28;20035;-77
2021/05/05 11:14:46;;;;;;;8.73;0.98;;;13.00;87.50;;;;;;5081945;28;20047;-78
2021/05/05 11:17:28;;;;;;;9.90;1.35;;;12.90;87.80;;;;;;5083021;28;20055;-78
2021/05/05 11:19:54;;;;;;;8.32;1.00;;;12.80;87.90;;;;;;5073077;28;20024;-76
2021/05/05 11:22:26;;;;;;;8.30;1.20;;;12.90;87.60;;;;;;5057039;28;20043;-77
2021/05/05 11:24:53;;;;;;;10.13;1.73;;;12.80;87.80;;;;;;5094354;28;20036;-77
2021/05/05 11:27:45;;;;;;;13.60;1.05;;;12.30;89.50;;;;;;5078739;28;20043;-77
2021/05/05 11:30:40;;;;;;;11.25;1.40;;;11.90;90.20;;;;;;5076458;28;20149;-78
2021/05/05 11:33:09;;;;;;;11.50;1.50;;;11.90;91.90;;;;;;5069346;28;20376;-77
2021/05/05 11:35:37;;;;;;;8.32;1.05;;;11.90;91.00;;;;;;5104264;28;20040;-77
2021/05/05 11:38:06;;;;;;;9.20;0.90;;;11.80;90.20;;;;;;5082125;28;20036;-78
2021/05/05 11:40:33;;;;;;;6.90;0.70;;;11.60;88.90;;;;;;5095860;28;20051;-78
2021/05/05 11:43:00;;;;;;;5.78;0.50;;;10.90;90.60;;;;;;5068506;28;20036;-78
2021/05/05 11:45:26;;;;;;;7.32;0.60;;;10.10;91.60;;;;;;5067863;28;20027;-78
2021/05/05 11:47:53;;;;;;;9.10;0.98;;;9.50;93.20;;;;;;5070667;28;20046;-78
2021/05/05 11:50:25;;;;;;;11.45;0.70;;;9.00;94.00;;;;;;5067567;28;20501;-77
2021/05/05 11:53:01;;;;;;;7.72;0.90;;;8.70;94.80;;;;;;5096669;28;20122;-84
2021/05/05 11:55:32;;;;;;;9.98;0.98;;;8.70;95.70;;;;;;5065775;28;20040;-83
2021/05/05 11:58:00;;;;;;;10.85;1.42;;;8.60;96.00;;;;;;5080346;28;20036;-83
2021/05/05 12:00:37;;;;;;;12.32;1.30;;;8.70;96.60;;;;;;5079631;28;20521;-83
2021/05/05 12:03:05;;;;;;;10.60;1.20;;;8.90;96.60;;;;;;5082083;28;20378;-82
2021/05/05 12:05:35;;;;;;;14.80;1.95;;;9.30;97.40;;;;;;5087463;28;20039;-83
2021/05/05 12:08:15;;;;;;;11.82;1.33;;;9.90;97.40;;;;;;5093345;28;20051;-82
2021/05/05 12:10:47;;;;;;;14.00;1.73;;;10.60;97.00;;;;;;5101068;28;20040;-82
2021/05/05 12:13:22;;;;;;;16.10;2.08;;;10.80;95.40;;;;;;5104832;28;20035;-82
2021/05/05 12:16:03;;;;;;;9.57;1.15;;;10.70;94.70;;;;;;5088353;28;20036;-82
2021/05/05 12:18:38;;;;;;;13.48;2.10;;;10.80;94.60;;;;;;5103618;28;20043;-82
2021/05/05 12:21:16;;;;;;;12.65;1.30;;;10.60;93.10;;;;;;5103638;28;20040;-82
2021/05/05 12:23:48;;;;;;;13.77;1.35;;;10.70;92.50;;;;;;5098186;28;20050;-82
2021/05/05 12:26:31;;;;;;;13.65;1.55;;;11.20;92.30;;;;;;5102773;28;20605;-82
2021/05/05 12:29:03;;;;;;;12.63;1.73;;;11.80;91.00;;;;;;5100018;28;20050;-82
2021/05/05 12:31:34;;;;;;;13.15;1.90;;;12.20;89.90;;;;;;5101248;28;20042;-83
2021/05/05 12:34:03;;;;;;;10.80;1.02;;;12.40;87.70;;;;;;5080197;28;20051;-83
2021/05/05 12:36:35;;;;;;;9.73;1.52;;;12.10;85.90;;;;;;5075293;28;20043;-83
2021/05/05 12:39:12;;;;;;;11.30;1.10;;;11.50;87.50;;;;;;5096944;28;20039;-83
2021/05/05 12:41:41;;;;;;;14.02;1.50;;;10.70;90.10;;;;;;5104980;28;20059;-81
2021/05/05 12:44:08;;;;;;;16.52;1.80;;;10.30;92.00;;;;;;5103495;28;20034;-82
2021/05/05 12:49:35;;;;;;;14.15;1.65;;;10.70;92.90;;;;;;5100843;28;20039;-82
2021/05/05 12:52:08;;;;;;;8.85;1.30;;;11.30;93.40;;;;;;5065022;28;20861;-82
2021/05/05 12:54:44;;;;;;;10.43;1.10;;;12.20;92.30;;;;;;5087949;28;20038;-82
2021/05/05 12:57:19;;;;;;;14.52;1.27;;;13.00;89.20;;;;;;5084640;28;20036;-82
2021/05/05 12:59:48;;;;;;;9.70;1.23;;;13.80;85.20;;;;;;5102747;28;21182;-83
2021/05/05 13:02:27;;;;;;;10.52;1.05;;;14.00;79.90;;;;;;5086304;28;20051;-83
2021/05/05 13:05:07;;;;;;;10.75;1.10;;;14.20;81.00;;;;;;5098798;28;20032;-83
2021/05/05 13:07:40;;;;;;;7.22;0.90;;;14.50;75.40;;;;;;5101395;28;20042;-83
2021/05/05 13:10:12;;;;;;;8.73;1.25;;;14.90;74.30;;;;;;5101659;28;20407;-83